Time;durP1;ratioP1;P1;durP2;ratioP2;P2;SDS_P1;SDS_P2;PMS_P1;PMS_P2;Temp;Humidity;BMP_temperature;BMP_pressure;BME280_temperature;BME280_humidity;BME280_pressure;Samples;Min_cycle;Max_cycle;Signal;HPM_P1;HPM_P2
2023/06/03 00:02:25;;;;;;;0.63;0.40;;;;;;;19.25;96.95;102168.00;10450792;28;20060;-79
2023/06/03 00:07:27;;;;;;;0.45;0.30;;;;;;;19.30;96.65;102171.53;10463444;28;20411;-78
2023/06/03 00:12:29;;;;;;;2.63;0.93;;;;;;;19.41;95.62;102169.03;10449292;28;20056;-79
2023/06/03 00:17:31;;;;;;;5.05;1.10;;;;;;;19.46;95.00;102164.72;10442348;28;20132;-78
2023/06/03 00:22:35;;;;;;;0.00;0.00;;;;;;;19.62;94.08;102163.97;10450421;28;20422;-79
2023/06/03 00:27:36;;;;;;;0.20;0.20;;;;;;;19.10;96.33;102172.22;10464809;28;20427;-78
2023/06/03 00:32:38;;;;;;;0.10;0.10;;;;;;;19.02;95.89;102177.34;10435737;28;20098;-79
2023/06/03 00:37:40;;;;;;;1.85;0.43;;;;;;;19.38;94.93;102171.63;10467798;28;20037;-78
2023/06/03 00:42:42;;;;;;;0.10;0.10;;;;;;;18.90;95.53;102171.97;10450958;28;20045;-79
2023/06/03 00:47:44;;;;;;;0.10;0.10;;;;;;;18.92;95.23;102170.28;10434323;28;20059;-79
2023/06/03 00:52:46;;;;;;;0.03;0.03;;;;;;;18.83;95.32;102164.91;10466755;28;20052;-79
2023/06/03 00:57:49;;;;;;;0.50;0.40;;;;;;;18.93;94.03;102164.19;10439180;28;20037;-79
2023/06/03 01:02:52;;;;;;;0.10;0.10;;;;;;;18.64;94.68;102169.94;10433123;28;20044;-78
2023/06/03 01:08:23;;;;;;;0.30;0.20;;;;;;;18.61;95.05;102169.88;10449506;28;20041;-79
2023/06/03 01:13:43;;;;;;;;;;;;;;;18.31;96.47;102178.19;10449931;28;20045;-79
2023/06/03 01:18:46;;;;;;;1.60;0.33;;;;;;;18.58;96.11;102169.81;10449808;28;19929;-78
2023/06/03 01:23:49;;;;;;;0.30;0.20;;;;;;;18.38;95.39;102172.19;10432591;28;20059;-79
2023/06/03 01:28:51;;;;;;;0.28;0.20;;;;;;;18.95;92.65;102172.03;10431935;28;20403;-79
2023/06/03 01:33:53;;;;;;;0.10;0.10;;;;;;;18.33;94.60;102166.91;10424695;28;20410;-79
2023/06/03 01:38:56;;;;;;;0.00;0.00;;;;;;;18.55;93.55;102164.59;10439890;28;20550;-79
2023/06/03 01:43:58;;;;;;;0.10;0.10;;;;;;;18.33;93.31;102159.06;10445197;28;20041;-78
2023/06/03 01:49:02;;;;;;;0.10;0.10;;;;;;;18.54;92.79;102170.66;10446356;28;20033;-78
2023/06/03 01:54:04;;;;;;;0.20;0.15;;;;;;;18.65;91.33;102173.41;10456477;28;20056;-79
2023/06/03 01:59:06;;;;;;;0.75;0.75;;;;;;;17.82;94.91;102175.66;10431889;28;20613;-79
2023/06/03 02:04:08;;;;;;;0.15;0.15;;;;;;;17.86;94.78;102182.69;10445236;28;20048;-79
2023/06/03 02:09:10;;;;;;;0.10;0.10;;;;;;;17.53;95.77;102178.66;10429601;28;20065;-79
2023/06/03 02:14:12;;;;;;;0.52;0.10;;;;;;;17.68;95.10;102168.50;10438212;28;20052;-78
2023/06/03 02:19:23;;;;;;;0.20;0.15;;;;;;;17.82;94.23;102176.53;10423391;28;20407;-79
2023/06/03 02:24:28;;;;;;;0.40;0.40;;;;;;;17.80;92.94;102172.16;10443074;28;20469;-78
2023/06/03 02:29:32;;;;;;;0.00;0.00;;;;;;;17.82;92.31;102173.06;10454614;28;20472;-78
2023/06/03 02:34:33;;;;;;;0.05;0.05;;;;;;;17.44;94.18;102175.06;10445671;28;20519;-79
2023/06/03 02:39:35;;;;;;;0.05;0.03;;;;;;;17.57;93.05;102186.53;10416131;28;20099;-79
2023/06/03 02:44:37;;;;;;;0.00;0.00;;;;;;;17.29;93.23;102182.59;10438698;28;20116;-79
2023/06/03 02:49:41;;;;;;;0.00;0.00;;;;;;;17.35;93.85;102184.44;10446878;28;20045;-79
2023/06/03 02:54:43;;;;;;;0.03;0.03;;;;;;;16.82;94.65;102188.59;10435511;28;20044;-79
2023/06/03 02:59:44;;;;;;;1.80;0.43;;;;;;;17.30;92.77;102192.16;10436744;28;20060;-79
2023/06/03 03:04:46;;;;;;;0.50;0.10;;;;;;;17.16;92.13;102188.41;10450133;28;20106;-79
2023/06/03 03:09:48;;;;;;;0.32;0.10;;;;;;;16.79;92.27;102193.72;10456841;28;20140;-79
2023/06/03 03:14:49;;;;;;;0.17;0.00;;;;;;;16.87;93.16;102189.56;10441859;28;20076;-79
2023/06/03 03:19:51;;;;;;;0.00;0.00;;;;;;;16.87;93.05;102191.25;10439175;28;20515;-79
2023/06/03 03:24:55;;;;;;;0.15;0.13;;;;;;;16.91;91.47;102193.09;10421734;28;20148;-79
2023/06/03 03:30:01;;;;;;;0.40;0.20;;;;;;;16.79;91.71;102188.50;10437467;28;20041;-78
2023/06/03 03:35:13;;;;;;;0.17;0.10;;;;;;;16.56;92.24;102196.72;10422955;28;20037;-79
2023/06/03 03:40:19;;;;;;;0.05;0.05;;;;;;;16.68;91.46;102193.50;10452875;28;20037;-78
2023/06/03 03:45:36;;;;;;;0.05;0.05;;;;;;;16.42;92.95;102198.13;10429121;28;20504;-79
2023/06/03 03:50:49;;;;;;;0.47;0.15;;;;;;;16.77;90.22;102195.41;10438037;28;20045;-79
2023/06/03 03:56:16;;;;;;;0.03;0.03;;;;;;;16.33;92.58;102198.81;10463262;28;20053;-78
2023/06/03 04:01:24;;;;;;;0.28;0.20;;;;;;;16.57;90.65;102198.47;10444315;28;20041;-79
2023/06/03 04:06:38;;;;;;;3.30;0.10;;;;;;;16.88;89.50;102203.44;10452381;28;20095;-78
2023/06/03 04:11:44;;;;;;;0.15;0.08;;;;;;;17.08;89.41;102207.38;10437501;28;20495;-79
2023/06/03 04:16:57;;;;;;;0.00;0.00;;;;;;;17.29;88.58;102206.88;10438994;28;20266;-79
2023/06/03 04:22:17;;;;;;;0.20;0.20;;;;;;;17.26;89.12;102205.94;10443769;28;20279;-79
2023/06/03 04:27:19;;;;;;;0.20;0.20;;;;;;;17.16;89.27;102214.47;10432956;28;20124;-79
2023/06/03 04:32:21;;;;;;;0.00;0.00;;;;;;;17.41;88.69;102211.44;10415031;28;20045;-79
2023/06/03 04:37:23;;;;;;;0.10;0.10;;;;;;;17.50;88.66;102217.69;10440151;28;20144;-79
2023/06/03 04:42:26;;;;;;;0.00;0.00;;;;;;;17.26;89.01;102221.59;10415750;28;20056;-78
2023/06/03 04:47:29;;;;;;;0.05;0.03;;;;;;;17.56;87.18;102220.41;10446091;28;20075;-78
2023/06/03 04:52:31;;;;;;;0.10;0.05;;;;;;;17.53;86.76;102220.38;10431276;28;20049;-80
2023/06/03 04:57:37;;;;;;;0.00;0.00;;;;;;;17.84;87.08;102226.09;10455436;28;20049;-78
2023/06/03 05:02:44;;;;;;;0.10;0.10;;;;;;;17.98;86.22;102224.66;10463565;28;20114;-79
2023/06/03 05:07:47;;;;;;;0.00;0.00;;;;;;;17.82;85.64;102227.81;10443442;28;20095;-79
2023/06/03 05:12:49;;;;;;;0.32;0.10;;;;;;;18.51;85.20;102215.84;10430645;28;20068;-79
2023/06/03 05:17:52;;;;;;;0.15;0.00;;;;;;;18.39;84.15;102210.47;10447521;28;20037;-80
2023/06/03 05:22:54;;;;;;;0.00;0.00;;;;;;;18.62;84.95;102208.16;10430266;28;20037;-79
2023/06/03 05:27:56;;;;;;;0.00;0.00;;;;;;;18.42;82.90;102210.50;10386103;28;1046460;-79
2023/06/03 05:33:08;;;;;;;0.10;0.10;;;;;;;18.42;83.69;102220.06;10448659;28;20138;-80
2023/06/03 05:38:13;;;;;;;0.00;0.00;;;;;;;18.48;82.38;102214.94;10448035;28;20041;-79
2023/06/03 05:43:16;;;;;;;0.00;0.00;;;;;;;18.27;81.51;102221.59;10434598;28;20057;-81
2023/06/03 05:48:18;;;;;;;0.00;0.00;;;;;;;19.05;80.06;102222.66;10445984;28;20113;-78
2023/06/03 05:53:25;;;;;;;0.63;0.28;;;;;;;18.59;78.83;102223.78;10446121;28;20053;-81
2023/06/03 05:58:29;;;;;;;0.13;0.05;;;;;;;18.92;79.25;102225.13;10451369;28;20033;-79
2023/06/03 06:03:31;;;;;;;0.03;0.03;;;;;;;19.10;77.19;102220.97;10425586;28;20492;-79
2023/06/03 06:08:34;;;;;;;0.17;0.17;;;;;;;19.27;77.52;102224.63;10441779;28;20488;-79
2023/06/03 06:13:36;;;;;;;0.00;0.00;;;;;;;19.37;77.10;102235.19;10430847;28;20508;-79
2023/06/03 06:18:38;;;;;;;0.08;0.00;;;;;;;19.71;75.08;102235.50;10447468;28;20051;-80
2023/06/03 06:23:42;;;;;;;0.00;0.00;;;;;;;19.88;75.56;102231.34;10427004;28;20161;-79
2023/06/03 06:28:45;;;;;;;0.00;0.00;;;;;;;20.25;72.91;102223.78;10409665;28;20040;-79
2023/06/03 06:33:50;;;;;;;0.47;0.13;;;;;;;19.97;73.39;102228.81;10432261;28;20048;-80
2023/06/03 06:38:56;;;;;;;0.00;0.00;;;;;;;20.37;70.65;102228.22;10446462;28;20165;-80
2023/06/03 06:44:00;;;;;;;0.00;0.00;;;;;;;20.52;67.83;102224.78;10461955;28;20526;-79
2023/06/03 06:49:02;;;;;;;0.63;0.28;;;;;;;20.94;67.91;102229.41;10462965;28;20136;-83
2023/06/03 06:54:04;;;;;;;0.00;0.00;;;;;;;21.47;63.58;102230.41;10447486;28;20041;-79
2023/06/03 06:59:06;;;;;;;0.63;0.10;;;;;;;21.90;62.07;102219.09;10446013;28;20553;-78
2023/06/03 07:04:09;;;;;;;0.00;0.00;;;;;;;22.88;61.80;102222.41;10443164;28;20049;-78
2023/06/03 07:09:11;;;;;;;0.10;0.00;;;;;;;22.78;58.51;102221.56;10444146;28;20060;-80
2023/06/03 07:14:13;;;;;;;0.00;0.00;;;;;;;22.73;56.80;102218.94;10428181;28;20077;-82
2023/06/03 07:19:15;;;;;;;0.00;0.00;;;;;;;23.44;52.91;102212.47;10447235;28;20068;-81
2023/06/03 07:24:21;;;;;;;0.10;0.00;;;;;;;23.58;51.56;102220.22;10448883;28;20080;-80
2023/06/03 07:29:25;;;;;;;0.43;0.10;;;;;;;23.94;50.96;102202.41;10432854;28;20091;-81
2023/06/03 07:34:27;;;;;;;0.00;0.00;;;;;;;25.31;52.44;102213.06;10433288;28;20056;-79
2023/06/03 07:39:29;;;;;;;10.85;0.28;;;;;;;25.16;48.14;102208.03;10447269;28;20057;-82
2023/06/03 07:44:45;;;;;;;0.20;0.10;;;;;;;25.74;49.07;102202.72;10434573;28;20052;-80
2023/06/03 07:49:48;;;;;;;0.17;0.15;;;;;;;25.30;45.38;102211.31;10454994;28;20412;-82
2023/06/03 07:54:50;;;;;;;0.00;0.00;;;;;;;24.54;45.38;102208.78;10454000;28;20052;-81
2023/06/03 07:59:55;;;;;;;0.00;0.00;;;;;;;25.11;44.65;102213.34;10455578;28;20084;-79
2023/06/03 08:05:00;;;;;;;0.00;0.00;;;;;;;25.95;45.42;102220.84;10462903;28;20132;-83
2023/06/03 08:10:03;;;;;;;0.08;0.00;;;;;;;25.46;42.44;102217.28;10468022;28;20043;-80
2023/06/03 08:15:05;;;;;;;0.00;0.00;;;;;;;25.69;39.51;102223.06;10457824;28;20045;-81
2023/06/03 08:20:12;;;;;;;0.10;0.10;;;;;;;27.23;39.86;102213.91;10440511;28;20072;-82
2023/06/03 08:25:14;;;;;;;0.00;0.00;;;;;;;25.65;38.21;102212.53;10451558;28;20056;-81
2023/06/03 08:30:22;;;;;;;0.00;0.00;;;;;;;24.76;36.07;102219.13;10438818;28;20064;-81
2023/06/03 08:35:24;;;;;;;0.28;0.15;;;;;;;26.21;35.03;102211.59;10437656;28;20559;-81
2023/06/03 08:40:26;;;;;;;0.00;0.00;;;;;;;25.80;36.07;102195.59;10455374;28;20053;-83
2023/06/03 08:45:54;;;;;;;0.00;0.00;;;;;;;26.22;33.99;102194.88;10453650;28;20484;-83
2023/06/03 08:51:04;;;;;;;0.00;0.00;;;;;;;27.00;34.75;102190.59;10448636;28;20048;-83
2023/06/03 08:56:07;;;;;;;0.10;0.10;;;;;;;27.43;34.94;102189.66;10460064;28;20037;-83
2023/06/03 09:01:10;;;;;;;0.00;0.00;;;;;;;26.38;34.36;102189.28;10449340;28;20045;-83
2023/06/03 09:06:13;;;;;;;0.00;0.00;;;;;;;26.13;32.83;102198.56;10466527;28;20522;-82
2023/06/03 09:11:16;;;;;;;0.00;0.00;;;;;;;26.54;32.98;102188.06;10456128;28;20044;-81
2023/06/03 09:16:18;;;;;;;0.10;0.10;;;;;;;26.77;32.29;102189.34;10452561;28;20061;-83
2023/06/03 09:21:20;;;;;;;0.00;0.00;;;;;;;27.68;31.46;102179.31;10452251;28;20056;-81
2023/06/03 09:26:22;;;;;;;0.00;0.00;;;;;;;27.43;33.08;102178.16;10444574;28;20053;-80
2023/06/03 09:31:24;;;;;;;0.00;0.00;;;;;;;28.32;32.62;102174.97;10449489;28;20491;-81
2023/06/03 09:36:26;;;;;;;0.00;0.00;;;;;;;27.42;31.34;102187.91;10458061;28;20519;-85
2023/06/03 09:41:28;;;;;;;0.00;0.00;;;;;;;28.77;34.88;102182.50;10468179;28;20033;-81
2023/06/03 09:46:32;;;;;;;1.25;0.10;;;;;;;27.89;30.51;102181.44;10431526;28;20243;-82
2023/06/03 09:51:40;;;;;;;0.00;0.00;;;;;;;27.23;30.20;102198.03;10452361;28;20518;-83
2023/06/03 09:56:45;;;;;;;0.00;0.00;;;;;;;28.07;31.74;102196.84;10429633;28;20416;-82
2023/06/03 10:01:49;;;;;;;0.00;0.00;;;;;;;27.21;30.12;102195.44;10455596;28;20037;-83
2023/06/03 10:07:10;;;;;;;0.00;0.00;;;;;;;27.47;30.22;102179.84;10443475;28;20140;-82
2023/06/03 10:12:13;;;;;;;0.00;0.00;;;;;;;27.96;29.85;102189.16;10431179;28;20041;-82
2023/06/03 10:17:17;;;;;;;0.00;0.00;;;;;;;27.38;29.64;102187.06;10456137;28;20045;-83
2023/06/03 10:22:19;;;;;;;0.00;0.00;;;;;;;29.24;30.24;102181.00;10450959;28;20515;-82
2023/06/03 10:27:21;;;;;;;0.00;0.00;;;;;;;29.53;31.57;102176.53;10458586;28;20043;-81
2023/06/03 10:32:23;;;;;;;0.30;0.20;;;;;;;28.69;30.84;102183.59;10452833;28;20069;-81
2023/06/03 10:37:26;;;;;;;0.00;0.00;;;;;;;28.03;28.38;102180.13;10432920;28;20091;-83
2023/06/03 10:42:27;;;;;;;0.15;0.10;;;;;;;29.55;29.63;102177.38;10434985;28;20045;-82
2023/06/03 10:47:31;;;;;;;0.00;0.00;;;;;;;29.02;30.60;102181.69;10472595;28;20041;-82
2023/06/03 10:52:57;;;;;;;0.10;0.10;;;;;;;28.22;29.14;102178.78;10451951;28;20041;-82
2023/06/03 10:58:10;;;;;;;0.20;0.00;;;;;;;27.21;29.90;102187.50;10452432;28;20080;-82
2023/06/03 11:03:16;;;;;;;0.00;0.00;;;;;;;28.80;30.27;102174.41;10435079;28;20066;-83
2023/06/03 11:08:57;;;;;;;0.00;0.00;;;;;;;28.80;29.79;102177.06;10445483;28;20056;-83
2023/06/03 11:13:59;;;;;;;0.20;0.10;;;;;;;27.89;26.63;102181.44;10446031;28;20052;-83
2023/06/03 11:19:33;;;;;;;0.00;0.00;;;;;;;29.03;28.65;102169.31;10468320;28;20033;-81
2023/06/03 11:24:38;;;;;;;0.00;0.00;;;;;;;28.67;28.83;102180.13;10447608;28;20060;-84
2023/06/03 11:29:46;;;;;;;0.00;0.00;;;;;;;27.50;28.57;102175.34;10474855;28;20044;-84
2023/06/03 11:34:50;;;;;;;0.00;0.00;;;;;;;28.16;29.73;102185.09;10450248;28;20049;-83
2023/06/03 11:40:20;;;;;;;0.00;0.00;;;;;;;27.82;29.46;102181.56;10467546;28;20044;-83
2023/06/03 11:45:24;;;;;;;0.47;0.20;;;;;;;28.95;27.88;102177.50;10461967;28;20124;-82
2023/06/03 11:50:28;;;;;;;0.00;0.00;;;;;;;29.34;29.08;102177.19;10454123;28;20787;-84
2023/06/03 11:55:32;;;;;;;0.00;0.00;;;;;;;28.49;28.10;102172.66;10441061;28;20519;-82
2023/06/03 12:00:33;;;;;;;0.77;0.35;;;;;;;28.72;27.02;102163.19;10459474;28;20054;-83
2023/06/03 12:05:52;;;;;;;0.15;0.08;;;;;;;28.69;28.52;102163.28;10440980;28;20492;-82
2023/06/03 12:10:53;;;;;;;0.00;0.00;;;;;;;28.38;28.46;102166.81;10455007;28;20103;-82
2023/06/03 12:15:55;;;;;;;0.00;0.00;;;;;;;28.99;29.28;102160.59;10466852;28;20059;-83
2023/06/03 12:21:22;;;;;;;0.00;0.00;;;;;;;29.37;28.97;102158.50;10459488;28;20048;-82
2023/06/03 12:26:25;;;;;;;0.15;0.15;;;;;;;28.58;27.90;102157.41;10460884;28;20084;-82
2023/06/03 12:31:27;;;;;;;0.00;0.00;;;;;;;28.03;28.76;102150.13;10424720;28;20045;-82
2023/06/03 12:36:48;;;;;;;0.47;0.10;;;;;;;28.42;27.31;102157.84;10447813;28;20531;-82
2023/06/03 12:41:52;;;;;;;0.57;0.08;;;;;;;28.17;27.64;102160.34;10440865;28;20037;-83
2023/06/03 12:47:04;;;;;;;0.13;0.00;;;;;;;28.23;27.89;102143.41;10473470;28;20037;-82
2023/06/03 12:52:12;;;;;;;0.00;0.00;;;;;;;26.67;29.59;102159.56;10455387;28;20052;-82
2023/06/03 12:57:24;;;;;;;0.00;0.00;;;;;;;28.75;27.50;102141.88;10453603;28;20067;-82
2023/06/03 13:02:27;;;;;;;0.00;0.00;;;;;;;28.33;28.99;102144.91;10444305;28;20131;-83
2023/06/03 13:07:29;;;;;;;0.80;0.57;;;;;;;27.95;27.66;102131.78;10459655;28;20091;-82
2023/06/03 13:12:31;;;;;;;0.00;0.00;;;;;;;28.43;27.48;102130.44;10454291;28;20476;-83
2023/06/03 13:17:34;;;;;;;0.00;0.00;;;;;;;28.47;28.00;102116.19;10453995;28;20515;-82
2023/06/03 13:22:40;;;;;;;0.00;0.00;;;;;;;28.27;27.82;102115.91;10452951;28;20063;-81
2023/06/03 13:27:44;;;;;;;0.00;0.00;;;;;;;28.11;28.12;102116.34;10459033;28;20131;-84
2023/06/03 13:32:46;;;;;;;0.00;0.00;;;;;;;27.88;27.89;102111.69;10433335;28;20419;-83
2023/06/03 13:37:47;;;;;;;0.00;0.00;;;;;;;27.31;25.56;102111.41;10437784;28;20144;-83
2023/06/03 13:42:49;;;;;;;0.00;0.00;;;;;;;27.46;25.19;102119.88;10436900;28;20052;-83
2023/06/03 13:47:51;;;;;;;0.00;0.00;;;;;;;27.50;26.53;102117.13;10453069;28;20484;-82
2023/06/03 13:52:52;;;;;;;0.00;0.00;;;;;;;28.02;26.40;102116.59;10439629;28;20515;-82
2023/06/03 13:57:54;;;;;;;0.00;0.00;;;;;;;28.49;28.77;102114.34;10454332;28;20082;-83
2023/06/03 14:02:56;;;;;;;0.00;0.00;;;;;;;28.57;26.97;102102.63;10465258;28;20045;-82
2023/06/03 14:07:57;;;;;;;0.00;0.00;;;;;;;28.58;28.85;102097.31;10449234;28;20102;-82
2023/06/03 14:12:59;;;;;;;0.00;0.00;;;;;;;28.51;25.75;102098.41;10448015;28;20055;-84
2023/06/03 14:18:01;;;;;;;0.00;0.00;;;;;;;28.06;27.48;102089.13;10461778;28;20470;-81
2023/06/03 14:23:03;;;;;;;0.00;0.00;;;;;;;27.83;27.28;102085.34;10455778;28;20384;-83
2023/06/03 14:28:05;;;;;;;0.00;0.00;;;;;;;28.26;28.57;102085.91;10432614;28;20049;-84
2023/06/03 14:33:06;;;;;;;0.00;0.00;;;;;;;28.20;27.86;102087.84;10450221;28;20049;-86
2023/06/03 14:38:08;;;;;;;0.00;0.00;;;;;;;27.51;26.53;102087.09;10434444;28;20065;-86
2023/06/03 14:43:10;;;;;;;0.00;0.00;;;;;;;28.01;28.28;102091.03;10451874;28;20060;-82
2023/06/03 14:48:12;;;;;;;0.10;0.10;;;;;;;28.57;27.86;102084.09;10454519;28;20053;-82
2023/06/03 14:53:13;;;;;;;0.00;0.00;;;;;;;28.40;27.99;102072.25;10453073;28;20052;-81
2023/06/03 14:58:17;;;;;;;0.03;0.03;;;;;;;27.43;28.02;102073.22;10446252;28;20053;-83
2023/06/03 15:03:20;;;;;;;0.43;0.08;;;;;;;28.13;28.24;102063.34;10478084;28;20051;-82
2023/06/03 15:08:22;;;;;;;0.00;0.00;;;;;;;27.08;27.92;102067.00;10443873;28;20072;-82
2023/06/03 15:13:23;;;;;;;0.00;0.00;;;;;;;28.63;29.28;102054.75;10440767;28;20055;-82
2023/06/03 15:18:25;;;;;;;0.00;0.00;;;;;;;28.07;29.01;102058.25;10461700;28;20067;-83
2023/06/03 15:23:27;;;;;;;0.00;0.00;;;;;;;28.42;28.78;102046.53;10463320;28;20067;-80
2023/06/03 15:28:29;;;;;;;0.20;0.00;;;;;;;27.77;29.08;102051.09;10439463;28;20049;-82
2023/06/03 15:33:30;;;;;;;0.00;0.00;;;;;;;27.66;28.93;102047.91;10445419;28;20057;-84
2023/06/03 15:38:32;;;;;;;0.00;0.00;;;;;;;28.20;28.35;102037.53;10451594;28;20403;-81
2023/06/03 15:43:34;;;;;;;0.20;0.10;;;;;;;27.41;28.70;102035.28;10459523;28;20045;-83
2023/06/03 15:48:35;;;;;;;0.00;0.00;;;;;;;27.64;28.55;102034.69;10456037;28;20491;-83
2023/06/03 15:53:37;;;;;;;0.00;0.00;;;;;;;27.69;29.21;102042.50;10454444;28;20037;-80
2023/06/03 15:58:39;;;;;;;0.00;0.00;;;;;;;27.46;28.90;102036.06;10455106;28;20554;-86
2023/06/03 16:03:40;;;;;;;0.00;0.00;;;;;;;27.32;28.86;102033.78;10435588;28;20041;-83
2023/06/03 16:08:42;;;;;;;0.00;0.00;;;;;;;27.50;30.33;102040.38;10457861;28;20056;-83
2023/06/03 16:13:44;;;;;;;0.10;0.10;;;;;;;27.69;28.86;102031.91;10467997;28;20059;-81
2023/06/03 16:18:45;;;;;;;0.00;0.00;;;;;;;27.20;29.00;102037.59;10453042;28;20045;-81
2023/06/03 16:23:48;;;;;;;1.00;0.10;;;;;;;27.67;29.91;102031.97;10456992;28;20041;-80
2023/06/03 16:28:50;;;;;;;0.00;0.00;;;;;;;27.32;28.92;102033.78;10475780;28;20455;-80
2023/06/03 16:33:52;;;;;;;0.10;0.05;;;;;;;28.06;29.63;102025.56;10461347;28;20045;-81
2023/06/03 16:38:54;;;;;;;0.00;0.00;;;;;;;28.02;28.81;102034.50;10444797;28;20393;-82
2023/06/03 16:43:56;;;;;;;0.00;0.00;;;;;;;27.43;29.48;102027.34;10445818;28;20056;-82
2023/06/03 16:48:59;;;;;;;0.00;0.00;;;;;;;27.21;28.77;102035.81;10459134;28;20041;-82
2023/06/03 16:54:02;;;;;;;0.00;0.00;;;;;;;27.60;28.44;102024.22;10448216;28;20052;-83
2023/06/03 16:59:04;;;;;;;0.00;0.00;;;;;;;27.48;29.11;102023.66;10445574;28;20045;-82
2023/06/03 17:04:06;;;;;;;0.00;0.00;;;;;;;26.27;28.09;102041.56;10482753;28;20045;-79
2023/06/03 17:09:10;;;;;;;0.25;0.00;;;;;;;27.14;28.05;102028.94;10452693;28;20049;-82
2023/06/03 17:14:11;;;;;;;0.38;0.00;;;;;;;27.08;28.25;102032.63;10467452;28;20661;-82
2023/06/03 17:19:13;;;;;;;0.00;0.00;;;;;;;27.83;29.95;102027.09;10441177;28;20083;-82
2023/06/03 17:24:15;;;;;;;0.00;0.00;;;;;;;26.95;30.03;102031.19;10457206;28;20041;-81
2023/06/03 17:29:16;;;;;;;0.00;0.00;;;;;;;27.57;29.05;102026.97;10440170;28;20059;-81
2023/06/03 17:34:18;;;;;;;0.00;0.00;;;;;;;26.95;28.79;102033.84;10467010;28;20036;-82
2023/06/03 17:39:19;;;;;;;0.00;0.00;;;;;;;27.58;28.92;102018.13;10441347;28;20088;-81
2023/06/03 17:44:21;;;;;;;0.00;0.00;;;;;;;27.17;29.59;102029.75;10477491;28;20053;-81
2023/06/03 17:49:23;;;;;;;0.00;0.00;;;;;;;27.25;30.36;102016.31;10459856;28;20055;-80
2023/06/03 17:54:24;;;;;;;0.00;0.00;;;;;;;27.43;30.60;102022.03;10471305;28;20037;-81
2023/06/03 17:59:26;;;;;;;0.10;0.08;;;;;;;26.44;30.32;102028.81;10451305;28;20400;-81
2023/06/03 18:04:28;;;;;;;0.57;0.10;;;;;;;26.52;30.73;102031.31;10433389;28;20048;-81
2023/06/03 18:09:30;;;;;;;0.00;0.00;;;;;;;26.11;30.87;102026.06;10467204;28;20443;-81
2023/06/03 18:14:31;;;;;;;0.95;0.15;;;;;;;25.83;31.29;102031.00;10456123;28;20055;-81
2023/06/03 18:19:33;;;;;;;0.10;0.08;;;;;;;26.54;31.87;102032.16;10432872;28;20053;-81
2023/06/03 18:24:34;;;;;;;0.00;0.00;;;;;;;26.47;31.22;102033.19;10455991;28;20120;-80
2023/06/03 18:29:36;;;;;;;0.00;0.00;;;;;;;26.71;31.79;102036.16;10453877;28;20515;-81
2023/06/03 18:34:42;;;;;;;0.05;0.05;;;;;;;26.09;32.74;102037.56;10437632;28;20499;-81
2023/06/03 18:39:44;;;;;;;0.10;0.10;;;;;;;26.63;32.70;102032.81;10455677;28;20051;-81
2023/06/03 18:44:45;;;;;;;0.00;0.00;;;;;;;26.38;32.92;102033.41;10453163;28;20044;-81
2023/06/03 18:49:47;;;;;;;0.00;0.00;;;;;;;25.95;33.85;102027.25;10453708;28;20049;-80
2023/06/03 18:54:49;;;;;;;0.00;0.00;;;;;;;25.61;34.88;102031.44;10444505;28;20048;-81
2023/06/03 18:59:50;;;;;;;0.00;0.00;;;;;;;25.64;34.85;102036.66;10445465;28;20044;-80
2023/06/03 19:04:52;;;;;;;0.00;0.00;;;;;;;25.43;35.28;102042.34;10431944;28;20519;-81
2023/06/03 19:09:54;;;;;;;0.20;0.00;;;;;;;25.83;36.24;102041.56;10452981;28;20044;-81
2023/06/03 19:14:55;;;;;;;0.00;0.00;;;;;;;25.30;36.32;102039.03;10452714;28;20033;-81
2023/06/03 19:19:57;;;;;;;0.00;0.00;;;;;;;25.03;35.69;102043.84;10452381;28;20048;-81
2023/06/03 19:24:59;;;;;;;0.00;0.00;;;;;;;24.69;36.53;102050.53;10438683;28;20048;-80
2023/06/03 19:30:01;;;;;;;1.35;0.10;;;;;;;24.67;37.27;102052.34;10449597;28;20069;-80
2023/06/03 19:35:03;;;;;;;0.00;0.00;;;;;;;24.18;38.29;102056.50;10467850;28;20064;-80
2023/06/03 19:40:05;;;;;;;0.00;0.00;;;;;;;24.11;38.34;102056.59;10434250;28;20055;-80
2023/06/03 19:45:07;;;;;;;0.00;0.00;;;;;;;23.85;39.10;102065.66;10458255;28;20041;-80
2023/06/03 19:50:09;;;;;;;0.00;0.00;;;;;;;23.70;41.83;102064.03;10451141;28;20059;-81
2023/06/03 19:55:11;;;;;;;0.00;0.00;;;;;;;23.03;41.59;102069.88;10455930;28;20507;-81
2023/06/03 20:00:13;;;;;;;0.00;0.00;;;;;;;23.07;39.44;102076.84;10417894;28;20258;-80
2023/06/03 20:05:15;;;;;;;0.00;0.00;;;;;;;23.25;39.88;102080.25;10450520;28;20060;-80
2023/06/03 20:10:17;;;;;;;0.00;0.00;;;;;;;23.04;41.56;102092.66;10440297;28;20534;-81
2023/06/03 20:15:20;;;;;;;0.00;0.00;;;;;;;23.01;41.12;102089.19;10469325;28;20049;-80
2023/06/03 20:20:22;;;;;;;0.00;0.00;;;;;;;22.83;41.76;102093.66;10447502;28;20057;-81
2023/06/03 20:25:24;;;;;;;0.00;0.00;;;;;;;22.15;43.71;102097.44;10449520;28;20052;-80
2023/06/03 20:30:36;;;;;;;0.00;0.00;;;;;;;22.31;42.92;102097.41;10407022;28;20048;-80
2023/06/03 20:35:41;;;;;;;0.00;0.00;;;;;;;22.77;40.24;102107.72;10469190;28;20065;-80
2023/06/03 20:40:43;;;;;;;0.00;0.00;;;;;;;21.87;47.97;102110.66;10417066;28;20522;-80
2023/06/03 20:45:45;;;;;;;0.10;0.05;;;;;;;21.92;44.97;102107.16;10465919;28;20040;-80
2023/06/03 20:50:46;;;;;;;0.00;0.00;;;;;;;21.72;46.87;102113.31;10435917;28;20041;-80
2023/06/03 20:55:50;;;;;;;0.10;0.00;;;;;;;21.91;45.45;102110.66;10441617;28;20382;-80
2023/06/03 21:00:51;;;;;;;0.00;0.00;;;;;;;21.45;47.65;102117.69;10437014;28;20040;-80
2023/06/03 21:05:53;;;;;;;0.00;0.00;;;;;;;21.49;48.03;102119.41;10457203;28;20060;-80
2023/06/03 21:10:55;;;;;;;0.00;0.00;;;;;;;21.46;47.48;102114.19;10452481;28;20051;-80
2023/06/03 21:15:56;;;;;;;0.00;0.00;;;;;;;21.34;45.34;102108.91;10436947;28;20041;-80
2023/06/03 21:20:58;;;;;;;0.00;0.00;;;;;;;21.28;46.50;102114.16;10443715;28;20064;-80
2023/06/03 21:26:00;;;;;;;0.00;0.00;;;;;;;19.89;54.06;102128.50;10453270;28;20131;-80
2023/06/03 21:31:02;;;;;;;0.00;0.00;;;;;;;18.79;61.86;102148.34;10452105;28;20427;-82
2023/06/03 21:36:05;;;;;;;0.73;0.20;;;;;;;20.27;54.57;102138.31;10439839;28;20052;-81
2023/06/03 21:41:07;;;;;;;0.00;0.00;;;;;;;20.21;55.59;102133.06;10450144;28;20397;-80
2023/06/03 21:46:09;;;;;;;0.20;0.10;;;;;;;20.32;56.07;102140.97;10464662;28;20048;-81
2023/06/03 21:51:11;;;;;;;0.00;0.00;;;;;;;20.69;55.66;102145.47;10450706;28;20529;-80
2023/06/03 21:56:13;;;;;;;0.30;0.28;;;;;;;20.54;55.10;102152.38;10471868;28;20401;-81
2023/06/03 22:01:16;;;;;;;0.10;0.10;;;;;;;20.55;54.91;102154.13;10456293;28;20041;-81
2023/06/03 22:06:18;;;;;;;0.00;0.00;;;;;;;20.45;56.59;102152.34;10458054;28;20072;-81
2023/06/03 22:11:22;;;;;;;0.00;0.00;;;;;;;20.47;58.29;102153.22;10428320;28;20051;-81
2023/06/03 22:16:23;;;;;;;0.00;0.00;;;;;;;20.39;59.40;102162.78;10457445;28;20049;-81
2023/06/03 22:21:25;;;;;;;0.30;0.22;;;;;;;20.34;60.20;102157.53;10443687;28;20408;-81
2023/06/03 22:26:27;;;;;;;0.00;0.00;;;;;;;20.32;61.75;102158.38;10437235;28;20480;-80
2023/06/03 22:31:28;;;;;;;0.20;0.20;;;;;;;20.06;62.46;102164.34;10437224;28;20048;-81
2023/06/03 22:36:30;;;;;;;0.32;0.28;;;;;;;20.37;62.35;102161.88;10462223;28;20053;-81
2023/06/03 22:41:32;;;;;;;0.00;0.00;;;;;;;19.96;63.12;102169.53;10453811;28;20045;-80
2023/06/03 22:46:33;;;;;;;0.00;0.00;;;;;;;20.48;61.86;102167.22;10452941;28;20052;-80
2023/06/03 22:51:36;;;;;;;0.00;0.00;;;;;;;20.17;62.29;102173.13;10477234;28;20074;-80
2023/06/03 22:56:38;;;;;;;0.00;0.00;;;;;;;20.14;62.79;102178.38;10453238;28;20484;-81
2023/06/03 23:01:40;;;;;;;0.00;0.00;;;;;;;20.22;63.20;102181.00;10438943;28;20099;-80
2023/06/03 23:06:42;;;;;;;0.30;0.08;;;;;;;20.26;62.60;102183.66;10433149;28;20041;-81
2023/06/03 23:11:46;;;;;;;0.00;0.00;;;;;;;20.09;62.86;102180.94;10451712;28;20055;-81
2023/06/03 23:16:47;;;;;;;0.00;0.00;;;;;;;19.80;65.32;102193.75;10441819;28;21216;-81